createdAt,value
2022-10-01T00:00:44.532Z,995.42
2022-10-01T00:01:44.523Z,995.44
2022-10-01T00:02:44.518Z,995.47
2022-10-01T00:03:44.502Z,995.47
2022-10-01T00:04:44.496Z,995.35
2022-10-01T00:05:44.483Z,995.42
2022-10-01T00:06:44.471Z,995.42
2022-10-01T00:07:44.467Z,995.38
2022-10-01T00:08:44.450Z,995.38
2022-10-01T00:09:44.437Z,995.36
2022-10-01T00:10:44.426Z,995.31
2022-10-01T00:11:44.464Z,995.31
2022-10-01T00:12:44.403Z,995.26
2022-10-01T00:13:44.417Z,995.28
2022-10-01T00:14:44.384Z,995.33
2022-10-01T00:15:44.369Z,995.28
2022-10-01T00:16:44.362Z,995.26
2022-10-01T00:17:44.369Z,995.32
2022-10-01T00:18:44.337Z,995.28
2022-10-01T00:19:44.329Z,995.3
2022-10-01T00:20:44.322Z,995.31
2022-10-01T00:21:44.305Z,995.27
2022-10-01T00:22:44.302Z,995.22
2022-10-01T00:23:44.282Z,995.25
2022-10-01T00:24:44.276Z,995.23
2022-10-01T00:25:44.263Z,995.22
2022-10-01T00:26:44.268Z,995.18
2022-10-01T00:27:44.244Z,995.13
2022-10-01T00:28:44.254Z,995.18
2022-10-01T00:29:44.220Z,995.15
2022-10-01T00:30:44.213Z,995.13
2022-10-01T00:31:44.201Z,995.15
2022-10-01T00:32:44.193Z,995.1
2022-10-01T00:33:44.175Z,995.18
2022-10-01T00:34:44.169Z,995.11
2022-10-01T00:35:44.160Z,995.12
2022-10-01T00:36:44.152Z,995.13
2022-10-01T00:37:44.135Z,995.07
2022-10-01T00:38:44.128Z,995.16
2022-10-01T00:39:44.114Z,995.04
2022-10-01T00:40:44.110Z,995.12
2022-10-01T00:41:44.099Z,995.03
2022-10-01T00:42:44.088Z,995.01
2022-10-01T00:43:44.078Z,995.01
2022-10-01T00:44:44.067Z,995.02
2022-10-01T00:45:44.057Z,995.03
2022-10-01T00:46:44.046Z,995.07
2022-10-01T00:47:44.062Z,994.99
2022-10-01T00:48:44.024Z,994.87
2022-10-01T00:49:44.016Z,994.84
2022-10-01T00:50:44.000Z,994.87
2022-10-01T00:51:43.998Z,994.87
2022-10-01T00:52:43.984Z,994.86
2022-10-01T00:53:43.968Z,994.79
2022-10-01T00:54:43.969Z,994.78
2022-10-01T00:55:43.952Z,994.83
2022-10-01T00:56:43.937Z,994.79
2022-10-01T00:57:43.932Z,994.82
2022-10-01T00:58:43.916Z,994.74
2022-10-01T00:59:43.915Z,994.67
2022-10-01T01:00:43.926Z,994.73
2022-10-01T01:01:43.900Z,994.72
2022-10-01T01:02:43.876Z,994.65
2022-10-01T01:03:43.867Z,994.68
2022-10-01T01:04:43.854Z,994.7
2022-10-01T01:05:43.846Z,994.69
2022-10-01T01:06:43.870Z,994.66
2022-10-01T01:07:43.855Z,994.73
2022-10-01T01:08:43.811Z,994.71
2022-10-01T01:09:43.837Z,994.74
2022-10-01T01:10:43.793Z,994.69
2022-10-01T01:11:43.777Z,994.62
2022-10-01T01:12:43.768Z,994.67
2022-10-01T01:13:43.757Z,994.64
2022-10-01T01:14:43.745Z,994.7
2022-10-01T01:15:43.738Z,994.73
2022-10-01T01:16:43.726Z,994.75
2022-10-01T01:17:43.713Z,994.66
2022-10-01T01:18:43.702Z,994.62
2022-10-01T01:19:43.694Z,994.67
2022-10-01T01:20:43.685Z,994.65
2022-10-01T01:21:43.668Z,994.58
2022-10-01T01:22:43.661Z,994.49
2022-10-01T01:23:43.647Z,994.55
2022-10-01T01:24:43.636Z,994.49
2022-10-01T01:25:43.633Z,994.46
2022-10-01T01:26:43.624Z,994.38
2022-10-01T01:27:43.608Z,994.37
2022-10-01T01:28:43.592Z,994.44
2022-10-01T01:29:43.586Z,994.37
2022-10-01T01:30:43.574Z,994.35
2022-10-01T01:31:43.573Z,994.34
2022-10-01T01:32:43.565Z,994.34
2022-10-01T01:33:43.542Z,994.37
2022-10-01T01:34:43.538Z,994.33
2022-10-01T01:35:43.526Z,994.29
2022-10-01T01:36:43.523Z,994.3
2022-10-01T01:37:43.503Z,994.29
2022-10-01T01:38:43.500Z,994.3
2022-10-01T01:39:43.480Z,994.28
2022-10-01T01:40:43.468Z,994.24
2022-10-01T01:41:43.459Z,994.33
2022-10-01T01:42:43.448Z,994.24
2022-10-01T01:43:43.439Z,994.29
2022-10-01T01:44:43.431Z,994.28
2022-10-01T01:45:43.415Z,994.2
2022-10-01T01:46:43.410Z,994.19
2022-10-01T01:47:43.394Z,994.21
2022-10-01T01:48:43.387Z,994.21
2022-10-01T01:49:43.373Z,994.19
2022-10-01T01:50:43.364Z,994.2
2022-10-01T01:51:43.356Z,994.17
2022-10-01T01:52:43.342Z,994.16
2022-10-01T01:53:43.334Z,994.03
2022-10-01T01:54:43.323Z,994.1
2022-10-01T01:55:43.310Z,994.04
2022-10-01T01:56:43.301Z,994
2022-10-01T01:57:43.293Z,994.02
2022-10-01T01:58:43.277Z,993.98
2022-10-01T01:59:43.267Z,993.94
2022-10-01T02:00:43.272Z,993.93
2022-10-01T02:01:43.248Z,993.96
2022-10-01T02:02:43.256Z,993.9
2022-10-01T02:03:43.230Z,993.88
2022-10-01T02:04:43.216Z,993.85
2022-10-01T02:05:43.209Z,993.87
2022-10-01T02:06:43.196Z,993.82
2022-10-01T02:07:43.215Z,993.81
2022-10-01T02:08:43.176Z,993.81
2022-10-01T02:09:43.165Z,993.69
2022-10-01T02:10:43.162Z,993.73
2022-10-01T02:11:43.147Z,993.69
2022-10-01T02:12:43.135Z,993.67
2022-10-01T02:13:43.120Z,993.66
2022-10-01T02:14:43.113Z,993.69
2022-10-01T02:15:43.112Z,993.59
2022-10-01T02:16:43.094Z,993.65
2022-10-01T02:17:43.095Z,993.62
2022-10-01T02:18:43.078Z,993.68
2022-10-01T02:19:43.060Z,993.59
2022-10-01T02:20:43.051Z,993.56
2022-10-01T02:21:43.040Z,993.58
2022-10-01T02:22:43.045Z,993.57
2022-10-01T02:23:43.022Z,993.6
2022-10-01T02:24:43.012Z,993.59
2022-10-01T02:25:43.001Z,993.53
2022-10-01T02:26:42.989Z,993.56
2022-10-01T02:27:42.974Z,993.54
2022-10-01T02:28:42.966Z,993.54
2022-10-01T02:29:42.961Z,993.48
2022-10-01T02:30:42.947Z,993.5
2022-10-01T02:31:42.937Z,993.43
2022-10-01T02:32:42.923Z,993.43
2022-10-01T02:33:42.923Z,993.41
2022-10-01T02:34:42.908Z,993.44
2022-10-01T02:35:42.893Z,993.4
2022-10-01T02:36:42.886Z,993.36
2022-10-01T02:37:42.873Z,993.35
2022-10-01T02:38:42.861Z,993.32
2022-10-01T02:39:42.848Z,993.28
2022-10-01T02:40:42.845Z,993.27
2022-10-01T02:41:42.861Z,993.25
2022-10-01T02:42:42.819Z,993.25
2022-10-01T02:43:42.808Z,993.25
2022-10-01T02:44:42.795Z,993.29
2022-10-01T02:45:42.786Z,993.2
2022-10-01T02:46:42.780Z,993.27
2022-10-01T02:47:42.766Z,993.25
2022-10-01T02:48:42.755Z,993.2
2022-10-01T02:49:42.743Z,993.28
2022-10-01T02:50:42.739Z,993.18
2022-10-01T02:51:42.723Z,993.15
2022-10-01T02:52:42.716Z,993.17
2022-10-01T02:53:42.705Z,993.09
2022-10-01T02:54:42.698Z,993.01
2022-10-01T02:55:42.688Z,993.14
2022-10-01T02:56:42.674Z,993.12
2022-10-01T02:57:42.664Z,993.12
2022-10-01T02:58:42.665Z,993.15
2022-10-01T02:59:42.640Z,993.18
2022-10-01T03:00:42.634Z,993
2022-10-01T03:01:42.670Z,993.04
2022-10-01T03:02:42.614Z,993.07
2022-10-01T03:03:42.596Z,993.06
2022-10-01T03:04:42.588Z,993.01
2022-10-01T03:05:42.577Z,993.01
2022-10-01T03:06:42.572Z,992.98
2022-10-01T03:07:42.555Z,992.94
2022-10-01T03:08:42.554Z,992.98
2022-10-01T03:09:42.534Z,992.98
2022-10-01T03:10:42.525Z,993.01
2022-10-01T03:11:42.513Z,992.89
2022-10-01T03:12:42.508Z,992.91
2022-10-01T03:13:42.499Z,992.94
2022-10-01T03:14:42.484Z,992.85
2022-10-01T03:15:42.479Z,992.9
2022-10-01T03:16:42.461Z,992.87
2022-10-01T03:17:42.456Z,992.88
2022-10-01T03:18:42.443Z,992.85
2022-10-01T03:19:42.460Z,992.83
2022-10-01T03:20:42.419Z,992.84
2022-10-01T03:21:42.408Z,992.86
2022-10-01T03:22:42.401Z,992.76
2022-10-01T03:23:42.388Z,992.82
2022-10-01T03:24:42.381Z,992.84
2022-10-01T03:25:42.367Z,992.82
2022-10-01T03:26:42.357Z,992.77
2022-10-01T03:27:42.346Z,992.82
2022-10-01T03:28:42.339Z,992.69
2022-10-01T03:29:42.325Z,992.7
2022-10-01T03:30:42.357Z,992.69
2022-10-01T03:31:42.312Z,992.61
2022-10-01T03:32:42.295Z,992.63
2022-10-01T03:33:42.285Z,992.63
2022-10-01T03:34:42.275Z,992.6
2022-10-01T03:35:42.261Z,992.61
2022-10-01T03:36:42.266Z,992.57
2022-10-01T03:37:42.243Z,992.55
2022-10-01T03:38:42.230Z,992.59
2022-10-01T03:39:42.221Z,992.49
2022-10-01T03:40:42.208Z,992.42
2022-10-01T03:41:42.200Z,992.47
2022-10-01T03:42:42.195Z,992.39
2022-10-01T03:43:42.180Z,992.35
2022-10-01T03:44:42.164Z,992.37
2022-10-01T03:45:42.157Z,992.35
2022-10-01T03:46:42.147Z,992.28
2022-10-01T03:47:42.134Z,992.35
2022-10-01T03:48:42.128Z,992.33
2022-10-01T03:49:42.114Z,992.43
2022-10-01T03:50:42.103Z,992.38
2022-10-01T03:51:42.095Z,992.31
2022-10-01T03:52:42.083Z,992.32
2022-10-01T03:53:42.071Z,992.26
2022-10-01T03:54:42.062Z,992.15
2022-10-01T03:55:42.055Z,992.15
2022-10-01T03:56:42.038Z,992.16
2022-10-01T03:57:42.031Z,992.15
2022-10-01T03:58:42.025Z,992.02
2022-10-01T03:59:42.010Z,992.06
2022-10-01T04:00:42.032Z,991.99
2022-10-01T04:01:42.064Z,991.98
2022-10-01T04:02:41.981Z,991.91
2022-10-01T04:03:41.992Z,991.96
2022-10-01T04:04:41.972Z,991.86
2022-10-01T04:05:41.966Z,991.74
2022-10-01T04:06:41.935Z,991.72
2022-10-01T04:07:41.926Z,991.74
2022-10-01T04:08:41.915Z,991.64
2022-10-01T04:09:41.911Z,991.69
2022-10-01T04:10:41.891Z,991.72
2022-10-01T04:11:41.881Z,991.59
2022-10-01T04:12:41.876Z,991.62
2022-10-01T04:13:41.856Z,991.55
2022-10-01T04:14:41.849Z,991.57
2022-10-01T04:15:41.838Z,991.56
2022-10-01T04:16:41.830Z,991.47
2022-10-01T04:17:41.818Z,991.45
2022-10-01T04:18:41.810Z,991.45
2022-10-01T04:19:41.798Z,991.45
2022-10-01T04:20:41.787Z,991.45
2022-10-01T04:21:41.773Z,991.46
2022-10-01T04:22:41.781Z,991.51
2022-10-01T04:23:41.754Z,991.46
2022-10-01T04:24:41.749Z,991.42
2022-10-01T04:25:41.736Z,991.38
2022-10-01T04:26:41.726Z,991.42
2022-10-01T04:27:41.711Z,991.5
2022-10-01T04:28:41.701Z,991.38
2022-10-01T04:29:41.692Z,991.41
2022-10-01T04:30:41.694Z,991.4
2022-10-01T04:31:41.669Z,991.42
2022-10-01T04:32:41.659Z,991.39
2022-10-01T04:33:41.648Z,991.4
2022-10-01T04:34:41.641Z,991.44
2022-10-01T04:35:41.626Z,991.44
2022-10-01T04:36:41.625Z,991.41
2022-10-01T04:37:41.604Z,991.36
2022-10-01T04:38:41.635Z,991.33
2022-10-01T04:39:41.591Z,991.35
2022-10-01T04:40:41.570Z,991.36
2022-10-01T04:41:41.565Z,991.37
2022-10-01T04:42:41.552Z,991.36
2022-10-01T04:43:41.537Z,991.35
2022-10-01T04:44:41.532Z,991.3
2022-10-01T04:45:41.516Z,991.34
2022-10-01T04:46:41.508Z,991.31
2022-10-01T04:47:41.505Z,991.31
2022-10-01T04:48:41.487Z,991.26
2022-10-01T04:49:41.475Z,991.36
2022-10-01T04:50:41.464Z,991.32
2022-10-01T04:51:41.457Z,991.3
2022-10-01T04:52:41.447Z,991.31
2022-10-01T04:53:41.429Z,991.27
2022-10-01T04:54:41.425Z,991.26
2022-10-01T04:55:41.412Z,991.22
2022-10-01T04:56:41.401Z,991.24
2022-10-01T04:57:41.401Z,991.19
2022-10-01T04:58:41.386Z,991.19
2022-10-01T04:59:41.364Z,991.17
2022-10-01T05:00:41.354Z,991.18
2022-10-01T05:01:41.347Z,991.12
2022-10-01T05:02:41.360Z,991.19
2022-10-01T05:03:41.326Z,991.1
2022-10-01T05:04:41.316Z,991.12
2022-10-01T05:05:41.308Z,991.17
2022-10-01T05:06:41.300Z,991.13
2022-10-01T05:07:41.282Z,991.09
2022-10-01T05:08:41.276Z,991.09
2022-10-01T05:09:41.263Z,991.1
2022-10-01T05:10:41.256Z,991.09
2022-10-01T05:11:41.239Z,991.04
2022-10-01T05:12:41.246Z,991.12
2022-10-01T05:13:41.223Z,991.1
2022-10-01T05:14:41.230Z,991.09
2022-10-01T05:15:41.208Z,991.11
2022-10-01T05:16:41.188Z,991.01
2022-10-01T05:17:41.187Z,991.05
2022-10-01T05:18:41.182Z,991.09
2022-10-01T05:19:41.193Z,990.99
2022-10-01T05:20:41.160Z,991
2022-10-01T05:21:41.166Z,990.99
2022-10-01T05:22:41.138Z,991.02
2022-10-01T05:23:41.130Z,991.07
2022-10-01T05:24:41.117Z,990.99
2022-10-01T05:25:41.108Z,990.87
2022-10-01T05:26:41.080Z,990.9
2022-10-01T05:27:41.113Z,990.88
2022-10-01T05:28:41.060Z,990.88
2022-10-01T05:29:41.049Z,990.89
2022-10-01T05:30:41.039Z,990.88
2022-10-01T05:31:41.035Z,990.92
2022-10-01T05:32:41.019Z,990.86
2022-10-01T05:33:41.019Z,990.85
2022-10-01T05:34:41.008Z,990.9
2022-10-01T05:35:40.987Z,990.88
2022-10-01T05:36:40.980Z,990.9
2022-10-01T05:37:40.965Z,990.93
2022-10-01T05:38:40.952Z,990.93
2022-10-01T05:39:40.955Z,990.92
2022-10-01T05:40:40.938Z,990.9
2022-10-01T05:41:40.930Z,990.87
2022-10-01T05:42:40.916Z,990.86
2022-10-01T05:43:40.897Z,990.91
2022-10-01T05:44:40.916Z,990.94
2022-10-01T05:45:40.893Z,990.89
2022-10-01T05:46:40.867Z,990.86
2022-10-01T05:47:40.861Z,990.85
2022-10-01T05:48:40.852Z,990.86
2022-10-01T05:49:40.841Z,990.84
2022-10-01T05:50:40.796Z,990.83
2022-10-01T05:51:40.849Z,990.8
2022-10-01T05:52:40.877Z,990.82
2022-10-01T05:53:40.761Z,990.88
2022-10-01T05:54:40.771Z,990.88
2022-10-01T05:55:40.737Z,990.86
2022-10-01T05:56:40.741Z,990.87
2022-10-01T05:57:40.744Z,990.83
2022-10-01T05:58:40.726Z,990.81
2022-10-01T05:59:40.699Z,990.86
2022-10-01T06:00:40.701Z,990.88
2022-10-01T06:01:40.673Z,990.85
2022-10-01T06:02:40.669Z,990.85
2022-10-01T06:03:40.665Z,990.84
2022-10-01T06:04:40.653Z,990.89
2022-10-01T06:05:40.637Z,990.85
2022-10-01T06:06:40.653Z,990.9
2022-10-01T06:07:40.611Z,990.83
2022-10-01T06:08:40.604Z,990.87
2022-10-01T06:09:40.594Z,990.89
2022-10-01T06:10:40.707Z,990.9
2022-10-01T06:11:40.579Z,990.85
2022-10-01T06:12:40.670Z,990.8
2022-10-01T06:13:40.583Z,990.72
2022-10-01T06:14:40.557Z,990.78
2022-10-01T06:15:40.551Z,990.65
2022-10-01T06:16:40.546Z,990.63
2022-10-01T06:17:40.520Z,990.62
2022-10-01T06:18:40.496Z,990.57
2022-10-01T06:19:40.483Z,990.6
2022-10-01T06:20:40.477Z,990.5
2022-10-01T06:21:40.468Z,990.59
2022-10-01T06:22:40.449Z,990.49
2022-10-01T06:23:40.444Z,990.53
2022-10-01T06:24:40.432Z,990.43
2022-10-01T06:25:40.422Z,990.54
2022-10-01T06:26:40.408Z,990.56
2022-10-01T06:27:40.406Z,990.61
2022-10-01T06:28:40.399Z,990.63
2022-10-01T06:29:40.397Z,990.68
2022-10-01T06:30:40.368Z,990.56
2022-10-01T06:31:40.394Z,990.64
2022-10-01T06:32:40.359Z,990.66
2022-10-01T06:33:40.338Z,990.65
2022-10-01T06:34:40.326Z,990.69
2022-10-01T06:35:40.353Z,990.73
2022-10-01T06:36:40.304Z,990.72
2022-10-01T06:37:40.295Z,990.69
2022-10-01T06:38:40.354Z,990.72
2022-10-01T06:39:40.289Z,990.77
2022-10-01T06:40:40.275Z,990.79
2022-10-01T06:41:40.250Z,990.77
2022-10-01T06:42:40.244Z,990.79
2022-10-01T06:43:40.231Z,990.75
2022-10-01T06:44:40.225Z,990.81
2022-10-01T06:45:40.221Z,990.84
2022-10-01T06:46:40.198Z,990.8
2022-10-01T06:47:40.188Z,990.74
2022-10-01T06:48:40.179Z,990.8
2022-10-01T06:49:40.164Z,990.75
2022-10-01T06:50:40.156Z,990.76
2022-10-01T06:51:40.150Z,990.73
2022-10-01T06:52:40.134Z,990.62
2022-10-01T06:53:40.120Z,990.73
2022-10-01T06:54:40.117Z,990.65
2022-10-01T06:55:40.102Z,990.75
2022-10-01T06:56:40.099Z,990.76
2022-10-01T06:57:40.094Z,990.66
2022-10-01T06:58:40.068Z,990.73
2022-10-01T06:59:40.068Z,990.68
2022-10-01T07:00:40.050Z,990.71
2022-10-01T07:01:40.034Z,990.78
2022-10-01T07:02:40.026Z,990.75
2022-10-01T07:03:40.027Z,990.71
2022-10-01T07:04:40.009Z,990.64
2022-10-01T07:05:39.997Z,990.57
2022-10-01T07:06:39.991Z,990.62
2022-10-01T07:07:39.982Z,990.62
2022-10-01T07:08:39.966Z,990.63
2022-10-01T07:09:39.958Z,990.64
2022-10-01T07:10:39.941Z,990.63
2022-10-01T07:11:39.934Z,990.64
2022-10-01T07:12:39.930Z,990.68
2022-10-01T07:13:39.906Z,990.57
2022-10-01T07:14:39.898Z,990.55
2022-10-01T07:15:39.900Z,990.55
2022-10-01T07:16:39.880Z,990.48
2022-10-01T07:17:39.875Z,990.44
2022-10-01T07:18:39.861Z,990.48
2022-10-01T07:19:39.843Z,990.45
2022-10-01T07:20:39.833Z,990.44
2022-10-01T07:21:39.834Z,990.51
2022-10-01T07:22:39.815Z,990.53
2022-10-01T07:23:39.812Z,990.52
2022-10-01T07:24:39.792Z,990.53
2022-10-01T07:25:39.786Z,990.51
2022-10-01T07:26:39.768Z,990.52
2022-10-01T07:27:39.762Z,990.63
2022-10-01T07:28:39.752Z,990.53
2022-10-01T07:29:39.741Z,990.54
2022-10-01T07:30:39.734Z,990.5
2022-10-01T07:31:39.721Z,990.54
2022-10-01T07:32:39.709Z,990.58
2022-10-01T07:33:39.699Z,990.53
2022-10-01T07:34:39.686Z,990.58
2022-10-01T07:35:39.676Z,990.51
2022-10-01T07:36:39.682Z,990.52
2022-10-01T07:37:39.661Z,990.52
2022-10-01T07:38:39.644Z,990.6
2022-10-01T07:39:39.634Z,990.52
2022-10-01T07:40:39.631Z,990.54
2022-10-01T07:41:39.615Z,990.48
2022-10-01T07:42:39.602Z,990.53
2022-10-01T07:43:39.592Z,990.54
2022-10-01T07:44:39.587Z,990.56
2022-10-01T07:45:39.568Z,990.5
2022-10-01T07:46:39.561Z,990.47
2022-10-01T07:47:39.551Z,990.47
2022-10-01T07:48:39.537Z,990.44
2022-10-01T07:49:39.527Z,990.45
2022-10-01T07:50:39.539Z,990.53
2022-10-01T07:51:39.552Z,990.51
2022-10-01T07:52:39.495Z,990.52
2022-10-01T07:53:40.519Z,990.55
2022-10-01T07:54:39.483Z,990.5
2022-10-01T07:55:39.468Z,990.55
2022-10-01T07:56:39.564Z,990.48
2022-10-01T07:57:39.490Z,990.51
2022-10-01T07:58:39.434Z,990.49
2022-10-01T07:59:39.432Z,990.48
2022-10-01T08:00:39.417Z,990.48
2022-10-01T08:01:39.412Z,990.41
2022-10-01T08:02:39.404Z,990.46
2022-10-01T08:03:39.390Z,990.54
2022-10-01T08:04:39.370Z,990.47
2022-10-01T08:05:39.362Z,990.55
2022-10-01T08:06:39.351Z,990.56
2022-10-01T08:07:39.352Z,990.54
2022-10-01T08:08:39.339Z,990.59
2022-10-01T08:09:39.325Z,990.54
2022-10-01T08:10:39.316Z,990.56
2022-10-01T08:11:39.306Z,990.54
2022-10-01T08:12:39.306Z,990.54
2022-10-01T08:13:39.290Z,990.6
2022-10-01T08:14:39.288Z,990.63
2022-10-01T08:15:39.291Z,990.6
2022-10-01T08:16:39.296Z,990.59
2022-10-01T08:17:39.239Z,990.69
2022-10-01T08:18:39.239Z,990.66
2022-10-01T08:19:39.232Z,990.65
2022-10-01T08:20:39.209Z,990.67
2022-10-01T08:21:39.195Z,990.72
2022-10-01T08:22:39.187Z,990.75
2022-10-01T08:23:39.180Z,990.71
2022-10-01T08:24:39.171Z,990.74
2022-10-01T08:25:39.159Z,990.76
2022-10-01T08:26:39.220Z,990.85
2022-10-01T08:27:39.135Z,990.83
2022-10-01T08:28:39.129Z,990.78
2022-10-01T08:29:39.111Z,990.74
2022-10-01T08:30:39.104Z,990.77
2022-10-01T08:31:39.106Z,990.78
2022-10-01T08:32:39.085Z,990.8
2022-10-01T08:33:39.067Z,990.83
2022-10-01T08:34:39.061Z,990.87
2022-10-01T08:35:39.050Z,990.79
2022-10-01T08:36:39.035Z,990.81
2022-10-01T08:37:39.026Z,990.83
2022-10-01T08:38:39.050Z,990.81
2022-10-01T08:39:39.043Z,990.8
2022-10-01T08:40:39.057Z,990.92
2022-10-01T08:41:38.982Z,990.92
2022-10-01T08:42:38.971Z,990.82
2022-10-01T08:43:38.962Z,990.93
2022-10-01T08:44:38.974Z,990.88
2022-10-01T08:45:38.953Z,990.9
2022-10-01T08:46:38.936Z,990.87
2022-10-01T08:47:38.925Z,990.87
2022-10-01T08:48:38.917Z,990.82
2022-10-01T08:49:38.900Z,990.85
2022-10-01T08:50:38.889Z,990.86
2022-10-01T08:51:38.875Z,990.8
2022-10-01T08:52:38.873Z,990.84
2022-10-01T08:53:38.860Z,990.91
2022-10-01T08:54:38.859Z,990.93
2022-10-01T08:55:38.857Z,990.9
2022-10-01T08:56:38.966Z,990.92
2022-10-01T08:57:38.812Z,990.78
2022-10-01T08:58:38.805Z,990.94
2022-10-01T08:59:38.818Z,990.9
2022-10-01T09:00:38.779Z,990.91
2022-10-01T09:01:38.773Z,990.87
2022-10-01T09:02:38.768Z,990.9
2022-10-01T09:03:38.797Z,990.8
2022-10-01T09:04:38.751Z,990.78
2022-10-01T09:05:38.726Z,990.82
2022-10-01T09:06:38.723Z,990.76
2022-10-01T09:07:38.714Z,990.82
2022-10-01T09:08:38.703Z,990.85
2022-10-01T09:09:39.195Z,990.84
2022-10-01T09:10:38.737Z,990.75
2022-10-01T09:11:38.670Z,990.86
2022-10-01T09:12:38.652Z,990.87
2022-10-01T09:13:38.680Z,990.92
2022-10-01T09:14:38.636Z,990.91
2022-10-01T09:15:38.618Z,990.9
2022-10-01T09:16:38.612Z,990.82
2022-10-01T09:17:38.600Z,990.97
2022-10-01T09:18:38.602Z,990.89
2022-10-01T09:19:38.581Z,990.86
2022-10-01T09:20:38.580Z,990.92
2022-10-01T09:21:38.559Z,990.98
2022-10-01T09:22:38.553Z,991.05
2022-10-01T09:23:38.536Z,991.06
2022-10-01T09:24:38.528Z,990.97
2022-10-01T09:25:38.529Z,991.02
2022-10-01T09:26:38.508Z,991.08
2022-10-01T09:27:38.494Z,991.05
2022-10-01T09:28:38.487Z,991.03
2022-10-01T09:29:38.507Z,991.08
2022-10-01T09:30:38.473Z,991.16
2022-10-01T09:31:38.449Z,991.14
2022-10-01T09:32:38.437Z,991.15
2022-10-01T09:33:38.443Z,991.14
2022-10-01T09:34:38.416Z,991.15
2022-10-01T09:35:38.411Z,991.22
2022-10-01T09:36:38.401Z,991.22
2022-10-01T09:37:38.404Z,991.19
2022-10-01T09:38:38.379Z,991.21
2022-10-01T09:39:38.384Z,991.18
2022-10-01T09:40:38.367Z,991.27
2022-10-01T09:41:38.344Z,991.15
2022-10-01T09:42:38.337Z,991.34
2022-10-01T09:43:38.347Z,991.27
2022-10-01T09:44:38.346Z,991.35
2022-10-01T09:45:38.312Z,991.35
2022-10-01T09:46:38.300Z,991.35
2022-10-01T09:47:38.341Z,991.34
2022-10-01T09:48:38.305Z,991.33
2022-10-01T09:49:38.272Z,991.29
2022-10-01T09:50:38.259Z,991.34
2022-10-01T09:51:38.265Z,991.36
2022-10-01T09:52:38.247Z,991.4
2022-10-01T09:53:38.232Z,991.35
2022-10-01T09:54:38.206Z,991.36
2022-10-01T09:55:38.213Z,991.39
2022-10-01T09:56:38.218Z,991.35
2022-10-01T09:57:38.176Z,991.38
2022-10-01T09:58:38.169Z,991.34
2022-10-01T09:59:38.154Z,991.39
2022-10-01T10:00:38.142Z,991.36
2022-10-01T10:01:38.145Z,991.45
2022-10-01T10:02:38.131Z,991.43
2022-10-01T10:03:38.113Z,991.46
2022-10-01T10:04:38.172Z,991.45
2022-10-01T10:05:38.087Z,991.42
2022-10-01T10:06:38.081Z,991.46
2022-10-01T10:07:38.133Z,991.46
2022-10-01T10:08:38.059Z,991.48
2022-10-01T10:09:38.064Z,991.51
2022-10-01T10:10:38.036Z,991.51
2022-10-01T10:11:38.032Z,991.48
2022-10-01T10:12:38.025Z,991.54
2022-10-01T10:13:38.024Z,991.5
2022-10-01T10:14:38.020Z,991.53
2022-10-01T10:15:37.987Z,991.48
2022-10-01T10:16:37.989Z,991.49
2022-10-01T10:17:37.961Z,991.44
2022-10-01T10:18:37.977Z,991.47
2022-10-01T10:19:37.943Z,991.52
2022-10-01T10:20:37.930Z,991.6
2022-10-01T10:21:37.918Z,991.5
2022-10-01T10:22:37.907Z,991.5
2022-10-01T10:23:37.899Z,991.54
2022-10-01T10:24:37.887Z,991.51
2022-10-01T10:25:37.886Z,991.56
2022-10-01T10:26:37.865Z,991.62
2022-10-01T10:27:37.864Z,991.61
2022-10-01T10:28:37.846Z,991.63
2022-10-01T10:29:37.839Z,991.62
2022-10-01T10:30:37.823Z,991.68
2022-10-01T10:31:37.808Z,991.64
2022-10-01T10:32:37.802Z,991.61
2022-10-01T10:33:37.790Z,991.63
2022-10-01T10:34:37.779Z,991.65
2022-10-01T10:35:37.799Z,991.67
2022-10-01T10:36:37.766Z,991.47
2022-10-01T10:37:37.754Z,991.74
2022-10-01T10:38:37.742Z,991.75
2022-10-01T10:39:37.735Z,991.66
2022-10-01T10:40:37.755Z,991.69
2022-10-01T10:41:37.707Z,991.76
2022-10-01T10:42:37.696Z,991.74
2022-10-01T10:43:37.688Z,991.71
2022-10-01T10:44:37.678Z,991.74
2022-10-01T10:45:37.671Z,991.78
2022-10-01T10:46:37.663Z,991.8
2022-10-01T10:47:37.665Z,991.71
2022-10-01T10:48:37.651Z,992.05
2022-10-01T10:49:37.649Z,991.64
2022-10-01T10:50:37.618Z,991.65
2022-10-01T10:51:37.624Z,991.81
2022-10-01T10:52:37.600Z,992.06
2022-10-01T10:53:37.588Z,992.01
2022-10-01T10:54:37.580Z,991.72
2022-10-01T10:55:37.557Z,991.9
2022-10-01T10:56:37.573Z,991.61
2022-10-01T10:57:37.536Z,991.57
2022-10-01T10:58:37.560Z,991.55
2022-10-01T10:59:37.587Z,991.63
2022-10-01T11:00:37.551Z,991.6
2022-10-01T11:01:37.497Z,991.6
2022-10-01T11:02:37.484Z,991.72
2022-10-01T11:03:37.472Z,991.7
2022-10-01T11:04:37.498Z,991.75
2022-10-01T11:05:37.457Z,991.6
2022-10-01T11:06:37.443Z,991.75
2022-10-01T11:07:37.659Z,991.68
2022-10-01T11:08:37.458Z,991.68
2022-10-01T11:09:37.413Z,991.68
2022-10-01T11:10:37.397Z,991.72
2022-10-01T11:11:37.388Z,991.74
2022-10-01T11:12:37.376Z,991.68
2022-10-01T11:13:37.368Z,992.03
2022-10-01T11:14:37.374Z,991.8
2022-10-01T11:15:37.347Z,991.72
2022-10-01T11:16:37.369Z,991.63
2022-10-01T11:17:37.327Z,991.75
2022-10-01T11:18:37.331Z,991.71
2022-10-01T11:19:37.305Z,991.82
2022-10-01T11:20:37.325Z,991.86
2022-10-01T11:21:37.302Z,991.79
2022-10-01T11:22:37.275Z,991.79
2022-10-01T11:23:37.270Z,991.71
2022-10-01T11:24:37.254Z,991.68
2022-10-01T11:25:37.240Z,991.73
2022-10-01T11:26:37.228Z,991.75
2022-10-01T11:27:37.367Z,991.74
2022-10-01T11:28:37.241Z,991.74
2022-10-01T11:29:37.197Z,991.71
2022-10-01T11:30:37.203Z,991.55
2022-10-01T11:31:37.183Z,991.69
2022-10-01T11:32:37.167Z,991.66
2022-10-01T11:33:37.164Z,991.75
2022-10-01T11:34:37.219Z,991.78
2022-10-01T11:35:37.147Z,991.75
2022-10-01T11:36:37.126Z,992.1
2022-10-01T11:37:37.306Z,991.7
2022-10-01T11:38:37.296Z,991.76
2022-10-01T11:39:37.160Z,991.71
2022-10-01T11:40:37.097Z,991.76
2022-10-01T11:41:37.076Z,991.7
2022-10-01T11:42:37.099Z,991.75
2022-10-01T11:43:37.076Z,991.71
2022-10-01T11:44:37.045Z,991.8
2022-10-01T11:45:37.039Z,991.81
2022-10-01T11:46:37.026Z,991.92
2022-10-01T11:47:37.013Z,991.79
2022-10-01T11:48:37.008Z,991.84
2022-10-01T11:49:36.999Z,991.92
2022-10-01T11:50:36.983Z,991.9
2022-10-01T11:51:36.971Z,991.89
2022-10-01T11:52:36.958Z,991.83
2022-10-01T11:53:36.948Z,991.79
2022-10-01T11:54:36.940Z,991.89
2022-10-01T11:55:36.924Z,991.8
2022-10-01T11:56:37.700Z,991.86
2022-10-01T11:57:36.903Z,991.79
2022-10-01T11:58:36.902Z,991.87
2022-10-01T11:59:36.936Z,992.23
2022-10-01T12:00:36.896Z,992.26
2022-10-01T12:01:36.869Z,991.98
2022-10-01T12:02:36.944Z,991.84
2022-10-01T12:03:36.846Z,991.81
2022-10-01T12:04:36.845Z,992.11
2022-10-01T12:05:36.824Z,991.71
2022-10-01T12:06:36.815Z,991.75
2022-10-01T12:07:36.800Z,991.89
2022-10-01T12:08:36.790Z,991.85
2022-10-01T12:09:36.784Z,991.88
2022-10-01T12:10:36.789Z,991.81
2022-10-01T12:11:36.758Z,991.92
2022-10-01T12:12:36.787Z,992.2
2022-10-01T12:13:36.740Z,992.2
2022-10-01T12:14:36.730Z,991.87
2022-10-01T12:15:36.718Z,991.98
2022-10-01T12:16:36.716Z,992.17
2022-10-01T12:17:44.423Z,992.21
2022-10-01T12:18:36.697Z,991.74
2022-10-01T12:19:36.699Z,992
2022-10-01T12:20:36.673Z,992.09
2022-10-01T12:21:36.658Z,991.76
2022-10-01T12:22:36.658Z,991.86
2022-10-01T12:23:36.632Z,991.85
2022-10-01T12:24:36.663Z,991.82
2022-10-01T12:25:36.617Z,991.92
2022-10-01T12:26:36.601Z,991.91
2022-10-01T12:27:36.694Z,991.93
2022-10-01T12:28:36.594Z,991.92
2022-10-01T12:29:36.586Z,991.88
2022-10-01T12:30:36.560Z,992
2022-10-01T12:31:36.560Z,991.99